sensor_id;sensor_type;location;lat;lon;timestamp;P1;durP1;ratioP1;P2;durP2;ratioP2
69678;SDS011;56915;52.046;4.854;2022-07-29T00:00:27;3.22;;;1.23;;
69678;SDS011;56915;52.046;4.854;2022-07-29T00:02:54;3.40;;;1.40;;
69678;SDS011;56915;52.046;4.854;2022-07-29T00:05:21;2.03;;;1.40;;
69678;SDS011;56915;52.046;4.854;2022-07-29T00:07:48;3.25;;;1.50;;
69678;SDS011;56915;52.046;4.854;2022-07-29T00:10:15;2.20;;;1.20;;
69678;SDS011;56915;52.046;4.854;2022-07-29T00:12:41;2.03;;;1.20;;
69678;SDS011;56915;52.046;4.854;2022-07-29T00:15:09;2.25;;;1.27;;
69678;SDS011;56915;52.046;4.854;2022-07-29T00:17:36;2.97;;;1.38;;
69678;SDS011;56915;52.046;4.854;2022-07-29T00:20:04;2.30;;;1.13;;
69678;SDS011;56915;52.046;4.854;2022-07-29T00:22:31;2.35;;;1.40;;
69678;SDS011;56915;52.046;4.854;2022-07-29T00:24:58;3.45;;;1.40;;
69678;SDS011;56915;52.046;4.854;2022-07-29T00:27:25;2.85;;;1.60;;
69678;SDS011;56915;52.046;4.854;2022-07-29T00:29:52;5.60;;;1.50;;
69678;SDS011;56915;52.046;4.854;2022-07-29T00:32:18;3.97;;;1.50;;
69678;SDS011;56915;52.046;4.854;2022-07-29T00:34:45;3.35;;;1.50;;
69678;SDS011;56915;52.046;4.854;2022-07-29T00:37:31;2.45;;;1.27;;
69678;SDS011;56915;52.046;4.854;2022-07-29T00:39:58;2.75;;;1.13;;
69678;SDS011;56915;52.046;4.854;2022-07-29T00:42:25;4.82;;;1.40;;
69678;SDS011;56915;52.046;4.854;2022-07-29T00:44:51;3.28;;;1.42;;
69678;SDS011;56915;52.046;4.854;2022-07-29T00:47:18;4.10;;;1.38;;
69678;SDS011;56915;52.046;4.854;2022-07-29T00:49:45;4.95;;;1.48;;
69678;SDS011;56915;52.046;4.854;2022-07-29T00:52:12;4.47;;;1.60;;
69678;SDS011;56915;52.046;4.854;2022-07-29T00:54:42;4.03;;;1.50;;
69678;SDS011;56915;52.046;4.854;2022-07-29T00:57:10;3.05;;;1.42;;
69678;SDS011;56915;52.046;4.854;2022-07-29T00:59:38;3.78;;;1.60;;
69678;SDS011;56915;52.046;4.854;2022-07-29T01:02:05;3.10;;;1.30;;
69678;SDS011;56915;52.046;4.854;2022-07-29T01:04:32;5.75;;;1.30;;
69678;SDS011;56915;52.046;4.854;2022-07-29T01:07:00;3.00;;;1.48;;
69678;SDS011;56915;52.046;4.854;2022-07-29T01:09:28;2.50;;;1.30;;
69678;SDS011;56915;52.046;4.854;2022-07-29T01:12:12;2.20;;;1.40;;
69678;SDS011;56915;52.046;4.854;2022-07-29T01:14:41;3.03;;;1.50;;
69678;SDS011;56915;52.046;4.854;2022-07-29T01:20:02;3.63;;;1.48;;
69678;SDS011;56915;52.046;4.854;2022-07-29T01:34:27;2.80;;;1.40;;
69678;SDS011;56915;52.046;4.854;2022-07-29T01:37:12;2.42;;;1.30;;
69678;SDS011;56915;52.046;4.854;2022-07-29T01:39:47;4.43;;;1.50;;
69678;SDS011;56915;52.046;4.854;2022-07-29T01:47:37;3.80;;;1.50;;
69678;SDS011;56915;52.046;4.854;2022-07-29T01:50:12;4.63;;;1.52;;
69678;SDS011;56915;52.046;4.854;2022-07-29T01:52:43;4.28;;;1.50;;
69678;SDS011;56915;52.046;4.854;2022-07-29T01:55:16;2.60;;;1.40;;
69678;SDS011;56915;52.046;4.854;2022-07-29T01:57:46;4.95;;;1.55;;
69678;SDS011;56915;52.046;4.854;2022-07-29T02:00:14;2.97;;;1.50;;
69678;SDS011;56915;52.046;4.854;2022-07-29T02:02:43;3.00;;;1.60;;
69678;SDS011;56915;52.046;4.854;2022-07-29T02:05:12;3.05;;;1.58;;
69678;SDS011;56915;52.046;4.854;2022-07-29T02:07:43;3.25;;;1.50;;
69678;SDS011;56915;52.046;4.854;2022-07-29T02:10:12;1.80;;;1.50;;
69678;SDS011;56915;52.046;4.854;2022-07-29T02:12:41;2.33;;;1.60;;
69678;SDS011;56915;52.046;4.854;2022-07-29T02:15:16;3.58;;;1.80;;
69678;SDS011;56915;52.046;4.854;2022-07-29T02:17:47;2.53;;;1.60;;
69678;SDS011;56915;52.046;4.854;2022-07-29T02:20:17;3.88;;;1.70;;
69678;SDS011;56915;52.046;4.854;2022-07-29T02:22:45;2.63;;;1.60;;
69678;SDS011;56915;52.046;4.854;2022-07-29T02:25:14;3.00;;;1.83;;
69678;SDS011;56915;52.046;4.854;2022-07-29T02:27:43;2.40;;;1.60;;
69678;SDS011;56915;52.046;4.854;2022-07-29T02:30:11;3.80;;;1.77;;
69678;SDS011;56915;52.046;4.854;2022-07-29T02:32:39;5.10;;;1.80;;
69678;SDS011;56915;52.046;4.854;2022-07-29T02:35:08;5.32;;;1.85;;
69678;SDS011;56915;52.046;4.854;2022-07-29T02:37:36;3.65;;;1.73;;
69678;SDS011;56915;52.046;4.854;2022-07-29T02:40:04;1.98;;;1.60;;
69678;SDS011;56915;52.046;4.854;2022-07-29T02:42:34;3.95;;;2.22;;
69678;SDS011;56915;52.046;4.854;2022-07-29T02:45:06;3.10;;;1.77;;
69678;SDS011;56915;52.046;4.854;2022-07-29T02:47:38;4.85;;;2.10;;
69678;SDS011;56915;52.046;4.854;2022-07-29T02:50:20;3.67;;;1.90;;
69678;SDS011;56915;52.046;4.854;2022-07-29T02:52:54;5.13;;;1.80;;
69678;SDS011;56915;52.046;4.854;2022-07-29T02:55:56;3.08;;;1.88;;
69678;SDS011;56915;52.046;4.854;2022-07-29T02:58:45;3.20;;;1.80;;
69678;SDS011;56915;52.046;4.854;2022-07-29T03:01:21;4.72;;;2.10;;
69678;SDS011;56915;52.046;4.854;2022-07-29T03:03:51;5.90;;;2.10;;
69678;SDS011;56915;52.046;4.854;2022-07-29T03:06:20;3.70;;;2.00;;
69678;SDS011;56915;52.046;4.854;2022-07-29T03:09:03;3.78;;;2.00;;
69678;SDS011;56915;52.046;4.854;2022-07-29T03:11:38;4.82;;;2.28;;
69678;SDS011;56915;52.046;4.854;2022-07-29T03:14:16;3.70;;;2.00;;
69678;SDS011;56915;52.046;4.854;2022-07-29T03:16:44;5.47;;;2.25;;
69678;SDS011;56915;52.046;4.854;2022-07-29T03:19:13;4.25;;;2.20;;
69678;SDS011;56915;52.046;4.854;2022-07-29T03:21:40;3.60;;;2.30;;
69678;SDS011;56915;52.046;4.854;2022-07-29T03:24:07;4.70;;;2.15;;
69678;SDS011;56915;52.046;4.854;2022-07-29T03:26:36;5.45;;;2.20;;
69678;SDS011;56915;52.046;4.854;2022-07-29T03:29:03;4.18;;;2.50;;
69678;SDS011;56915;52.046;4.854;2022-07-29T03:31:30;3.55;;;2.30;;
69678;SDS011;56915;52.046;4.854;2022-07-29T03:33:58;3.28;;;2.30;;
69678;SDS011;56915;52.046;4.854;2022-07-29T03:36:25;5.97;;;2.42;;
69678;SDS011;56915;52.046;4.854;2022-07-29T03:38:52;3.92;;;2.50;;
69678;SDS011;56915;52.046;4.854;2022-07-29T03:41:19;5.97;;;2.47;;
69678;SDS011;56915;52.046;4.854;2022-07-29T03:43:49;4.18;;;2.22;;
69678;SDS011;56915;52.046;4.854;2022-07-29T03:46:16;4.40;;;2.40;;
69678;SDS011;56915;52.046;4.854;2022-07-29T03:48:47;8.32;;;2.70;;
69678;SDS011;56915;52.046;4.854;2022-07-29T03:51:16;4.60;;;2.35;;
69678;SDS011;56915;52.046;4.854;2022-07-29T03:53:58;5.20;;;2.50;;
69678;SDS011;56915;52.046;4.854;2022-07-29T03:56:25;4.15;;;2.60;;
69678;SDS011;56915;52.046;4.854;2022-07-29T03:58:54;3.65;;;2.40;;
69678;SDS011;56915;52.046;4.854;2022-07-29T04:01:21;4.88;;;2.53;;
69678;SDS011;56915;52.046;4.854;2022-07-29T04:03:50;4.78;;;2.60;;
69678;SDS011;56915;52.046;4.854;2022-07-29T04:06:17;3.78;;;2.33;;
69678;SDS011;56915;52.046;4.854;2022-07-29T04:08:44;4.57;;;2.40;;
69678;SDS011;56915;52.046;4.854;2022-07-29T04:11:11;6.05;;;2.90;;
69678;SDS011;56915;52.046;4.854;2022-07-29T04:13:38;4.70;;;2.60;;
69678;SDS011;56915;52.046;4.854;2022-07-29T04:16:05;4.72;;;2.70;;
69678;SDS011;56915;52.046;4.854;2022-07-29T04:18:32;3.83;;;2.33;;
69678;SDS011;56915;52.046;4.854;2022-07-29T04:20:59;4.03;;;2.40;;
69678;SDS011;56915;52.046;4.854;2022-07-29T04:23:27;3.65;;;2.38;;
69678;SDS011;56915;52.046;4.854;2022-07-29T04:25:58;4.13;;;2.50;;
69678;SDS011;56915;52.046;4.854;2022-07-29T04:28:27;6.10;;;2.38;;
69678;SDS011;56915;52.046;4.854;2022-07-29T04:30:54;4.07;;;2.30;;
69678;SDS011;56915;52.046;4.854;2022-07-29T04:33:21;3.75;;;2.40;;
69678;SDS011;56915;52.046;4.854;2022-07-29T04:35:50;3.47;;;2.40;;
69678;SDS011;56915;52.046;4.854;2022-07-29T04:38:20;7.50;;;2.85;;
69678;SDS011;56915;52.046;4.854;2022-07-29T04:40:48;4.38;;;2.50;;
69678;SDS011;56915;52.046;4.854;2022-07-29T04:43:15;3.38;;;2.35;;
69678;SDS011;56915;52.046;4.854;2022-07-29T04:45:48;5.10;;;2.47;;
69678;SDS011;56915;52.046;4.854;2022-07-29T04:48:15;3.92;;;2.63;;
69678;SDS011;56915;52.046;4.854;2022-07-29T04:50:42;4.82;;;2.70;;
69678;SDS011;56915;52.046;4.854;2022-07-29T04:53:10;6.40;;;2.53;;
69678;SDS011;56915;52.046;4.854;2022-07-29T04:55:37;4.82;;;2.50;;
69678;SDS011;56915;52.046;4.854;2022-07-29T04:58:04;5.15;;;2.40;;
69678;SDS011;56915;52.046;4.854;2022-07-29T05:00:31;5.53;;;2.60;;
69678;SDS011;56915;52.046;4.854;2022-07-29T05:02:58;2.95;;;2.35;;
69678;SDS011;56915;52.046;4.854;2022-07-29T05:05:26;3.80;;;2.70;;
69678;SDS011;56915;52.046;4.854;2022-07-29T05:07:52;3.40;;;2.58;;
69678;SDS011;56915;52.046;4.854;2022-07-29T05:10:19;5.05;;;2.58;;
69678;SDS011;56915;52.046;4.854;2022-07-29T05:12:46;7.75;;;3.00;;
69678;SDS011;56915;52.046;4.854;2022-07-29T05:15:13;4.15;;;2.70;;
69678;SDS011;56915;52.046;4.854;2022-07-29T05:17:40;4.78;;;2.50;;
69678;SDS011;56915;52.046;4.854;2022-07-29T05:20:07;5.63;;;2.63;;
69678;SDS011;56915;52.046;4.854;2022-07-29T05:22:34;7.40;;;2.75;;
69678;SDS011;56915;52.046;4.854;2022-07-29T05:25:01;5.57;;;2.75;;
69678;SDS011;56915;52.046;4.854;2022-07-29T05:27:34;3.92;;;2.50;;
69678;SDS011;56915;52.046;4.854;2022-07-29T05:30:03;6.63;;;2.40;;
69678;SDS011;56915;52.046;4.854;2022-07-29T05:32:30;4.22;;;2.58;;
69678;SDS011;56915;52.046;4.854;2022-07-29T05:34:56;4.88;;;2.70;;
69678;SDS011;56915;52.046;4.854;2022-07-29T05:37:23;4.90;;;2.70;;
69678;SDS011;56915;52.046;4.854;2022-07-29T05:39:50;3.33;;;2.40;;
69678;SDS011;56915;52.046;4.854;2022-07-29T05:42:24;3.92;;;2.28;;
69678;SDS011;56915;52.046;4.854;2022-07-29T05:44:51;4.93;;;2.70;;
69678;SDS011;56915;52.046;4.854;2022-07-29T05:47:18;4.88;;;2.70;;
69678;SDS011;56915;52.046;4.854;2022-07-29T05:49:45;5.10;;;2.72;;
69678;SDS011;56915;52.046;4.854;2022-07-29T05:52:12;4.30;;;2.83;;
69678;SDS011;56915;52.046;4.854;2022-07-29T05:54:40;5.35;;;2.60;;
69678;SDS011;56915;52.046;4.854;2022-07-29T05:57:07;5.10;;;2.70;;
69678;SDS011;56915;52.046;4.854;2022-07-29T05:59:37;5.93;;;2.60;;
69678;SDS011;56915;52.046;4.854;2022-07-29T06:02:04;3.75;;;2.70;;
69678;SDS011;56915;52.046;4.854;2022-07-29T06:04:32;3.65;;;2.58;;
69678;SDS011;56915;52.046;4.854;2022-07-29T06:06:59;5.45;;;2.83;;
69678;SDS011;56915;52.046;4.854;2022-07-29T06:09:27;4.47;;;2.70;;
69678;SDS011;56915;52.046;4.854;2022-07-29T06:11:54;8.00;;;2.65;;
69678;SDS011;56915;52.046;4.854;2022-07-29T06:14:21;6.03;;;2.40;;
69678;SDS011;56915;52.046;4.854;2022-07-29T06:16:48;3.63;;;2.53;;
69678;SDS011;56915;52.046;4.854;2022-07-29T06:19:15;5.65;;;2.65;;
69678;SDS011;56915;52.046;4.854;2022-07-29T06:21:49;5.32;;;2.60;;
69678;SDS011;56915;52.046;4.854;2022-07-29T06:24:16;7.60;;;2.53;;
69678;SDS011;56915;52.046;4.854;2022-07-29T06:26:44;4.60;;;2.65;;
69678;SDS011;56915;52.046;4.854;2022-07-29T06:29:12;3.80;;;2.42;;
69678;SDS011;56915;52.046;4.854;2022-07-29T06:31:39;4.50;;;2.60;;
69678;SDS011;56915;52.046;4.854;2022-07-29T06:34:06;4.03;;;2.40;;
69678;SDS011;56915;52.046;4.854;2022-07-29T06:36:34;4.07;;;2.45;;
69678;SDS011;56915;52.046;4.854;2022-07-29T06:39:03;5.93;;;2.83;;
69678;SDS011;56915;52.046;4.854;2022-07-29T06:41:33;5.20;;;2.90;;
69678;SDS011;56915;52.046;4.854;2022-07-29T06:44:00;5.05;;;2.65;;
69678;SDS011;56915;52.046;4.854;2022-07-29T06:46:26;4.05;;;2.50;;
69678;SDS011;56915;52.046;4.854;2022-07-29T06:48:54;6.07;;;2.67;;
69678;SDS011;56915;52.046;4.854;2022-07-29T06:51:21;4.75;;;2.30;;
69678;SDS011;56915;52.046;4.854;2022-07-29T06:53:50;4.60;;;2.45;;
69678;SDS011;56915;52.046;4.854;2022-07-29T06:56:24;3.00;;;2.10;;
69678;SDS011;56915;52.046;4.854;2022-07-29T06:58:51;3.63;;;2.50;;
69678;SDS011;56915;52.046;4.854;2022-07-29T07:01:18;3.17;;;2.10;;
69678;SDS011;56915;52.046;4.854;2022-07-29T07:03:46;4.25;;;2.00;;
69678;SDS011;56915;52.046;4.854;2022-07-29T07:06:13;5.88;;;2.15;;
69678;SDS011;56915;52.046;4.854;2022-07-29T07:08:40;3.55;;;2.20;;
69678;SDS011;56915;52.046;4.854;2022-07-29T07:11:07;4.68;;;2.20;;
69678;SDS011;56915;52.046;4.854;2022-07-29T07:13:35;3.72;;;2.42;;
69678;SDS011;56915;52.046;4.854;2022-07-29T07:16:02;2.78;;;2.10;;
69678;SDS011;56915;52.046;4.854;2022-07-29T07:18:29;4.05;;;2.30;;
69678;SDS011;56915;52.046;4.854;2022-07-29T07:20:56;4.20;;;2.13;;
69678;SDS011;56915;52.046;4.854;2022-07-29T07:23:23;2.95;;;2.20;;
69678;SDS011;56915;52.046;4.854;2022-07-29T07:25:51;5.47;;;2.20;;
69678;SDS011;56915;52.046;4.854;2022-07-29T07:28:18;4.60;;;2.50;;
69678;SDS011;56915;52.046;4.854;2022-07-29T07:30:58;5.75;;;2.30;;
69678;SDS011;56915;52.046;4.854;2022-07-29T07:33:25;4.88;;;2.30;;
69678;SDS011;56915;52.046;4.854;2022-07-29T07:35:52;5.32;;;2.25;;
69678;SDS011;56915;52.046;4.854;2022-07-29T07:38:18;5.25;;;2.20;;
69678;SDS011;56915;52.046;4.854;2022-07-29T07:40:45;3.78;;;2.42;;
69678;SDS011;56915;52.046;4.854;2022-07-29T07:43:12;3.45;;;2.20;;
69678;SDS011;56915;52.046;4.854;2022-07-29T07:45:39;5.95;;;2.20;;
69678;SDS011;56915;52.046;4.854;2022-07-29T07:48:06;6.82;;;2.17;;
69678;SDS011;56915;52.046;4.854;2022-07-29T07:50:33;4.93;;;2.45;;
69678;SDS011;56915;52.046;4.854;2022-07-29T07:52:59;3.00;;;2.10;;
69678;SDS011;56915;52.046;4.854;2022-07-29T07:55:28;4.32;;;2.40;;
69678;SDS011;56915;52.046;4.854;2022-07-29T07:58:15;6.57;;;2.40;;
69678;SDS011;56915;52.046;4.854;2022-07-29T08:00:42;6.63;;;2.40;;
69678;SDS011;56915;52.046;4.854;2022-07-29T08:03:09;4.25;;;2.30;;
69678;SDS011;56915;52.046;4.854;2022-07-29T08:05:42;5.13;;;2.58;;
69678;SDS011;56915;52.046;4.854;2022-07-29T08:08:09;5.10;;;2.15;;
69678;SDS011;56915;52.046;4.854;2022-07-29T08:10:36;4.97;;;2.13;;
69678;SDS011;56915;52.046;4.854;2022-07-29T08:13:19;3.60;;;2.40;;
69678;SDS011;56915;52.046;4.854;2022-07-29T08:15:47;4.07;;;2.50;;
69678;SDS011;56915;52.046;4.854;2022-07-29T08:18:24;5.47;;;2.30;;
69678;SDS011;56915;52.046;4.854;2022-07-29T08:20:51;4.82;;;2.42;;
69678;SDS011;56915;52.046;4.854;2022-07-29T08:23:17;3.28;;;2.58;;
69678;SDS011;56915;52.046;4.854;2022-07-29T08:25:45;4.22;;;2.50;;
69678;SDS011;56915;52.046;4.854;2022-07-29T08:28:15;3.28;;;2.40;;
69678;SDS011;56915;52.046;4.854;2022-07-29T08:30:43;4.50;;;2.60;;
69678;SDS011;56915;52.046;4.854;2022-07-29T08:33:10;3.88;;;2.67;;
69678;SDS011;56915;52.046;4.854;2022-07-29T08:35:38;6.30;;;2.50;;
69678;SDS011;56915;52.046;4.854;2022-07-29T08:38:05;3.72;;;2.20;;
69678;SDS011;56915;52.046;4.854;2022-07-29T08:40:32;4.93;;;2.53;;
69678;SDS011;56915;52.046;4.854;2022-07-29T08:43:03;2.70;;;2.23;;
69678;SDS011;56915;52.046;4.854;2022-07-29T08:45:37;4.97;;;2.55;;
69678;SDS011;56915;52.046;4.854;2022-07-29T08:48:14;5.78;;;2.55;;
69678;SDS011;56915;52.046;4.854;2022-07-29T08:50:42;4.47;;;2.50;;
69678;SDS011;56915;52.046;4.854;2022-07-29T08:53:13;4.45;;;2.35;;
69678;SDS011;56915;52.046;4.854;2022-07-29T08:55:42;2.77;;;2.40;;
69678;SDS011;56915;52.046;4.854;2022-07-29T08:58:11;5.55;;;2.40;;
69678;SDS011;56915;52.046;4.854;2022-07-29T09:00:42;4.38;;;2.63;;
69678;SDS011;56915;52.046;4.854;2022-07-29T09:03:15;3.47;;;2.55;;
69678;SDS011;56915;52.046;4.854;2022-07-29T09:05:46;5.95;;;2.58;;
69678;SDS011;56915;52.046;4.854;2022-07-29T09:08:14;4.63;;;2.60;;
69678;SDS011;56915;52.046;4.854;2022-07-29T09:10:42;5.22;;;2.67;;
69678;SDS011;56915;52.046;4.854;2022-07-29T09:13:10;4.05;;;2.88;;
69678;SDS011;56915;52.046;4.854;2022-07-29T09:15:36;8.95;;;2.70;;
69678;SDS011;56915;52.046;4.854;2022-07-29T09:18:04;7.32;;;2.67;;
69678;SDS011;56915;52.046;4.854;2022-07-29T09:20:30;7.33;;;2.70;;
69678;SDS011;56915;52.046;4.854;2022-07-29T09:23:16;3.28;;;2.50;;
69678;SDS011;56915;52.046;4.854;2022-07-29T09:25:49;4.63;;;3.00;;
69678;SDS011;56915;52.046;4.854;2022-07-29T09:28:16;4.97;;;2.80;;
69678;SDS011;56915;52.046;4.854;2022-07-29T09:33:22;4.63;;;2.87;;
69678;SDS011;56915;52.046;4.854;2022-07-29T09:36:08;5.65;;;3.10;;
69678;SDS011;56915;52.046;4.854;2022-07-29T09:38:35;8.90;;;2.97;;
69678;SDS011;56915;52.046;4.854;2022-07-29T09:41:04;5.72;;;2.83;;
69678;SDS011;56915;52.046;4.854;2022-07-29T09:43:32;4.38;;;3.08;;
69678;SDS011;56915;52.046;4.854;2022-07-29T09:46:12;6.03;;;3.37;;
69678;SDS011;56915;52.046;4.854;2022-07-29T09:48:40;3.70;;;2.70;;
69678;SDS011;56915;52.046;4.854;2022-07-29T09:51:17;6.40;;;3.03;;
69678;SDS011;56915;52.046;4.854;2022-07-29T09:54:21;5.25;;;2.97;;
69678;SDS011;56915;52.046;4.854;2022-07-29T09:56:49;5.03;;;3.08;;
69678;SDS011;56915;52.046;4.854;2022-07-29T09:59:16;6.27;;;2.80;;
69678;SDS011;56915;52.046;4.854;2022-07-29T10:01:43;6.65;;;2.78;;
69678;SDS011;56915;52.046;4.854;2022-07-29T10:04:10;9.40;;;3.00;;
69678;SDS011;56915;52.046;4.854;2022-07-29T10:06:54;4.65;;;2.50;;
69678;SDS011;56915;52.046;4.854;2022-07-29T10:09:30;4.85;;;2.78;;
69678;SDS011;56915;52.046;4.854;2022-07-29T10:12:05;6.37;;;3.00;;
69678;SDS011;56915;52.046;4.854;2022-07-29T10:14:37;7.68;;;2.92;;
69678;SDS011;56915;52.046;4.854;2022-07-29T10:17:09;5.40;;;2.90;;
69678;SDS011;56915;52.046;4.854;2022-07-29T10:19:37;8.40;;;2.70;;
69678;SDS011;56915;52.046;4.854;2022-07-29T10:22:09;4.40;;;3.10;;
69678;SDS011;56915;52.046;4.854;2022-07-29T10:24:37;5.43;;;2.90;;
69678;SDS011;56915;52.046;4.854;2022-07-29T10:27:06;5.57;;;2.90;;
69678;SDS011;56915;52.046;4.854;2022-07-29T10:29:34;4.55;;;2.80;;
69678;SDS011;56915;52.046;4.854;2022-07-29T10:40:41;7.03;;;3.05;;
69678;SDS011;56915;52.046;4.854;2022-07-29T10:43:36;5.20;;;2.90;;
69678;SDS011;56915;52.046;4.854;2022-07-29T10:46:07;6.45;;;3.28;;
69678;SDS011;56915;52.046;4.854;2022-07-29T10:49:03;6.88;;;3.13;;
69678;SDS011;56915;52.046;4.854;2022-07-29T10:57:14;5.60;;;2.83;;
69678;SDS011;56915;52.046;4.854;2022-07-29T10:59:43;5.15;;;2.80;;
69678;SDS011;56915;52.046;4.854;2022-07-29T11:07:37;5.70;;;2.63;;
69678;SDS011;56915;52.046;4.854;2022-07-29T11:15:13;3.78;;;2.65;;
69678;SDS011;56915;52.046;4.854;2022-07-29T11:20:41;7.97;;;3.22;;
69678;SDS011;56915;52.046;4.854;2022-07-29T11:47:48;3.90;;;2.60;;
69678;SDS011;56915;52.046;4.854;2022-07-29T11:50:26;6.63;;;3.13;;
69678;SDS011;56915;52.046;4.854;2022-07-29T11:53:00;7.22;;;3.40;;
69678;SDS011;56915;52.046;4.854;2022-07-29T11:55:34;5.20;;;3.08;;
69678;SDS011;56915;52.046;4.854;2022-07-29T11:58:21;8.37;;;3.10;;
69678;SDS011;56915;52.046;4.854;2022-07-29T12:00:51;4.70;;;3.03;;
69678;SDS011;56915;52.046;4.854;2022-07-29T12:03:38;4.03;;;2.63;;
69678;SDS011;56915;52.046;4.854;2022-07-29T12:06:12;7.18;;;2.60;;
69678;SDS011;56915;52.046;4.854;2022-07-29T12:08:42;8.63;;;2.80;;
69678;SDS011;56915;52.046;4.854;2022-07-29T12:11:16;4.43;;;2.47;;
69678;SDS011;56915;52.046;4.854;2022-07-29T12:13:47;6.78;;;2.70;;
69678;SDS011;56915;52.046;4.854;2022-07-29T12:16:14;8.73;;;2.70;;
69678;SDS011;56915;52.046;4.854;2022-07-29T12:18:55;7.53;;;2.42;;
69678;SDS011;56915;52.046;4.854;2022-07-29T12:21:22;5.22;;;2.50;;
69678;SDS011;56915;52.046;4.854;2022-07-29T12:23:54;5.90;;;2.70;;
69678;SDS011;56915;52.046;4.854;2022-07-29T12:26:27;5.63;;;2.40;;
69678;SDS011;56915;52.046;4.854;2022-07-29T12:28:53;8.10;;;2.45;;
69678;SDS011;56915;52.046;4.854;2022-07-29T12:31:21;4.22;;;2.50;;
69678;SDS011;56915;52.046;4.854;2022-07-29T12:34:08;3.83;;;2.50;;
69678;SDS011;56915;52.046;4.854;2022-07-29T12:36:43;6.53;;;3.20;;
69678;SDS011;56915;52.046;4.854;2022-07-29T12:39:11;5.70;;;2.80;;
69678;SDS011;56915;52.046;4.854;2022-07-29T12:41:38;4.93;;;2.90;;
69678;SDS011;56915;52.046;4.854;2022-07-29T12:44:05;4.63;;;2.72;;
69678;SDS011;56915;52.046;4.854;2022-07-29T12:46:32;4.93;;;2.83;;
69678;SDS011;56915;52.046;4.854;2022-07-29T12:48:59;7.53;;;2.80;;
69678;SDS011;56915;52.046;4.854;2022-07-29T12:51:36;5.00;;;2.60;;
69678;SDS011;56915;52.046;4.854;2022-07-29T12:54:12;9.90;;;2.72;;
69678;SDS011;56915;52.046;4.854;2022-07-29T12:56:40;5.95;;;2.95;;
69678;SDS011;56915;52.046;4.854;2022-07-29T12:59:17;4.93;;;2.70;;
69678;SDS011;56915;52.046;4.854;2022-07-29T13:01:47;4.33;;;2.50;;
69678;SDS011;56915;52.046;4.854;2022-07-29T13:04:32;3.40;;;2.70;;
69678;SDS011;56915;52.046;4.854;2022-07-29T13:07:01;6.68;;;2.83;;
69678;SDS011;56915;52.046;4.854;2022-07-29T13:09:40;4.35;;;2.80;;
69678;SDS011;56915;52.046;4.854;2022-07-29T13:12:10;4.43;;;2.60;;
69678;SDS011;56915;52.046;4.854;2022-07-29T13:14:39;4.73;;;2.77;;
69678;SDS011;56915;52.046;4.854;2022-07-29T13:17:12;6.18;;;2.63;;
69678;SDS011;56915;52.046;4.854;2022-07-29T13:19:43;6.13;;;3.22;;
69678;SDS011;56915;52.046;4.854;2022-07-29T13:22:16;6.65;;;3.10;;
69678;SDS011;56915;52.046;4.854;2022-07-29T13:24:52;4.63;;;3.20;;
69678;SDS011;56915;52.046;4.854;2022-07-29T13:27:21;6.23;;;2.90;;
69678;SDS011;56915;52.046;4.854;2022-07-29T13:29:54;5.05;;;3.13;;
69678;SDS011;56915;52.046;4.854;2022-07-29T13:32:24;5.25;;;3.13;;
69678;SDS011;56915;52.046;4.854;2022-07-29T13:34:54;7.03;;;3.45;;
69678;SDS011;56915;52.046;4.854;2022-07-29T13:37:22;4.85;;;2.97;;
69678;SDS011;56915;52.046;4.854;2022-07-29T13:39:49;6.17;;;3.03;;
69678;SDS011;56915;52.046;4.854;2022-07-29T13:42:18;6.32;;;3.30;;
69678;SDS011;56915;52.046;4.854;2022-07-29T13:44:45;5.95;;;3.00;;
69678;SDS011;56915;52.046;4.854;2022-07-29T13:47:14;6.07;;;3.10;;
69678;SDS011;56915;52.046;4.854;2022-07-29T13:49:42;5.32;;;2.80;;
69678;SDS011;56915;52.046;4.854;2022-07-29T13:52:09;3.60;;;2.80;;
69678;SDS011;56915;52.046;4.854;2022-07-29T13:54:36;6.63;;;3.00;;
69678;SDS011;56915;52.046;4.854;2022-07-29T13:57:08;5.18;;;3.25;;
69678;SDS011;56915;52.046;4.854;2022-07-29T13:59:37;4.43;;;3.17;;
69678;SDS011;56915;52.046;4.854;2022-07-29T14:02:05;6.68;;;2.90;;
69678;SDS011;56915;52.046;4.854;2022-07-29T14:04:32;5.83;;;3.80;;
69678;SDS011;56915;52.046;4.854;2022-07-29T14:06:59;4.32;;;3.00;;
69678;SDS011;56915;52.046;4.854;2022-07-29T14:09:29;4.47;;;2.95;;
69678;SDS011;56915;52.046;4.854;2022-07-29T14:12:06;4.03;;;3.03;;
69678;SDS011;56915;52.046;4.854;2022-07-29T14:14:35;5.90;;;3.42;;
69678;SDS011;56915;52.046;4.854;2022-07-29T14:17:03;6.77;;;3.30;;
69678;SDS011;56915;52.046;4.854;2022-07-29T14:19:32;7.03;;;3.40;;
69678;SDS011;56915;52.046;4.854;2022-07-29T14:22:02;7.03;;;3.33;;
69678;SDS011;56915;52.046;4.854;2022-07-29T14:24:30;6.28;;;3.03;;
69678;SDS011;56915;52.046;4.854;2022-07-29T14:27:00;5.38;;;2.75;;
69678;SDS011;56915;52.046;4.854;2022-07-29T14:29:27;7.03;;;3.10;;
69678;SDS011;56915;52.046;4.854;2022-07-29T14:32:04;5.78;;;3.15;;
69678;SDS011;56915;52.046;4.854;2022-07-29T14:34:34;5.68;;;2.83;;
69678;SDS011;56915;52.046;4.854;2022-07-29T14:37:01;5.75;;;2.80;;
69678;SDS011;56915;52.046;4.854;2022-07-29T14:39:32;5.55;;;3.00;;
69678;SDS011;56915;52.046;4.854;2022-07-29T14:42:04;7.73;;;2.50;;
69678;SDS011;56915;52.046;4.854;2022-07-29T14:44:32;5.05;;;2.55;;
69678;SDS011;56915;52.046;4.854;2022-07-29T14:47:01;4.65;;;2.63;;
69678;SDS011;56915;52.046;4.854;2022-07-29T14:49:34;6.22;;;2.60;;
69678;SDS011;56915;52.046;4.854;2022-07-29T14:52:01;6.43;;;3.05;;
69678;SDS011;56915;52.046;4.854;2022-07-29T14:54:28;2.90;;;2.17;;
69678;SDS011;56915;52.046;4.854;2022-07-29T14:56:55;6.45;;;2.42;;
69678;SDS011;56915;52.046;4.854;2022-07-29T14:59:23;6.38;;;2.72;;
69678;SDS011;56915;52.046;4.854;2022-07-29T15:01:51;5.03;;;2.90;;
69678;SDS011;56915;52.046;4.854;2022-07-29T15:04:18;3.28;;;2.38;;
69678;SDS011;56915;52.046;4.854;2022-07-29T15:06:45;7.00;;;2.50;;
69678;SDS011;56915;52.046;4.854;2022-07-29T15:09:14;9.73;;;3.03;;
69678;SDS011;56915;52.046;4.854;2022-07-29T15:11:41;5.88;;;2.55;;
69678;SDS011;56915;52.046;4.854;2022-07-29T15:14:07;6.07;;;2.25;;
69678;SDS011;56915;52.046;4.854;2022-07-29T15:16:38;3.45;;;2.20;;
69678;SDS011;56915;52.046;4.854;2022-07-29T15:19:13;10.53;;;2.50;;
69678;SDS011;56915;52.046;4.854;2022-07-29T15:21:40;4.53;;;2.05;;
69678;SDS011;56915;52.046;4.854;2022-07-29T15:24:13;4.50;;;2.22;;
69678;SDS011;56915;52.046;4.854;2022-07-29T15:26:40;5.85;;;2.17;;
69678;SDS011;56915;52.046;4.854;2022-07-29T15:29:08;6.38;;;2.20;;
69678;SDS011;56915;52.046;4.854;2022-07-29T15:31:35;4.07;;;2.30;;
69678;SDS011;56915;52.046;4.854;2022-07-29T15:34:03;5.65;;;2.10;;
69678;SDS011;56915;52.046;4.854;2022-07-29T15:36:32;3.42;;;2.08;;
69678;SDS011;56915;52.046;4.854;2022-07-29T15:39:19;4.93;;;2.28;;
69678;SDS011;56915;52.046;4.854;2022-07-29T15:41:50;5.28;;;2.55;;
69678;SDS011;56915;52.046;4.854;2022-07-29T15:44:19;3.37;;;1.93;;
69678;SDS011;56915;52.046;4.854;2022-07-29T15:46:47;4.13;;;2.20;;
69678;SDS011;56915;52.046;4.854;2022-07-29T15:49:33;6.07;;;2.55;;
69678;SDS011;56915;52.046;4.854;2022-07-29T15:52:14;4.55;;;2.75;;
69678;SDS011;56915;52.046;4.854;2022-07-29T15:54:52;3.80;;;2.47;;
69678;SDS011;56915;52.046;4.854;2022-07-29T15:57:20;2.97;;;2.13;;
69678;SDS011;56915;52.046;4.854;2022-07-29T15:59:53;4.32;;;2.58;;
69678;SDS011;56915;52.046;4.854;2022-07-29T16:02:20;5.63;;;2.35;;
69678;SDS011;56915;52.046;4.854;2022-07-29T16:04:48;4.20;;;2.58;;
69678;SDS011;56915;52.046;4.854;2022-07-29T16:07:15;5.38;;;2.85;;
69678;SDS011;56915;52.046;4.854;2022-07-29T16:09:42;4.33;;;2.30;;
69678;SDS011;56915;52.046;4.854;2022-07-29T16:12:19;3.47;;;2.40;;
69678;SDS011;56915;52.046;4.854;2022-07-29T16:14:46;3.90;;;2.70;;
69678;SDS011;56915;52.046;4.854;2022-07-29T16:17:14;5.28;;;2.70;;
69678;SDS011;56915;52.046;4.854;2022-07-29T16:19:42;6.00;;;2.95;;